sensor_id;sensor_type;location;lat;lon;timestamp;P1;durP1;ratioP1;P2;durP2;ratioP2
63536;SDS011;49686;51.880;5.632;2023-08-01T00:02:08;9.45;;;5.45;;
63536;SDS011;49686;51.880;5.632;2023-08-01T00:04:34;8.88;;;5.38;;
63536;SDS011;49686;51.880;5.632;2023-08-01T00:07:03;9.80;;;5.32;;
63536;SDS011;49686;51.880;5.632;2023-08-01T00:09:30;11.23;;;5.47;;
63536;SDS011;49686;51.880;5.632;2023-08-01T00:11:57;12.57;;;5.90;;
63536;SDS011;49686;51.880;5.632;2023-08-01T00:14:23;10.65;;;5.72;;
63536;SDS011;49686;51.880;5.632;2023-08-01T00:16:50;8.82;;;5.75;;
63536;SDS011;49686;51.880;5.632;2023-08-01T00:19:17;11.10;;;5.55;;
63536;SDS011;49686;51.880;5.632;2023-08-01T00:21:44;11.07;;;6.40;;
63536;SDS011;49686;51.880;5.632;2023-08-01T00:24:12;7.88;;;4.60;;
63536;SDS011;49686;51.880;5.632;2023-08-01T00:26:39;14.63;;;7.50;;
63536;SDS011;49686;51.880;5.632;2023-08-01T00:29:06;13.90;;;6.10;;
63536;SDS011;49686;51.880;5.632;2023-08-01T00:31:33;10.32;;;6.50;;
63536;SDS011;49686;51.880;5.632;2023-08-01T00:34:00;9.00;;;5.90;;
63536;SDS011;49686;51.880;5.632;2023-08-01T00:36:27;8.93;;;5.95;;
63536;SDS011;49686;51.880;5.632;2023-08-01T00:38:55;8.73;;;4.97;;
63536;SDS011;49686;51.880;5.632;2023-08-01T00:41:23;9.68;;;5.10;;
63536;SDS011;49686;51.880;5.632;2023-08-01T00:43:50;12.40;;;5.05;;
63536;SDS011;49686;51.880;5.632;2023-08-01T00:46:17;9.60;;;4.60;;
63536;SDS011;49686;51.880;5.632;2023-08-01T00:48:44;9.52;;;4.57;;
63536;SDS011;49686;51.880;5.632;2023-08-01T00:51:11;9.02;;;4.70;;
63536;SDS011;49686;51.880;5.632;2023-08-01T00:53:39;9.45;;;4.50;;
63536;SDS011;49686;51.880;5.632;2023-08-01T00:56:06;9.90;;;4.60;;
63536;SDS011;49686;51.880;5.632;2023-08-01T00:58:37;10.35;;;4.45;;
63536;SDS011;49686;51.880;5.632;2023-08-01T01:01:04;9.05;;;4.20;;
63536;SDS011;49686;51.880;5.632;2023-08-01T01:03:31;7.05;;;3.78;;
63536;SDS011;49686;51.880;5.632;2023-08-01T01:06:01;11.13;;;4.20;;
63536;SDS011;49686;51.880;5.632;2023-08-01T01:08:38;8.20;;;4.50;;
63536;SDS011;49686;51.880;5.632;2023-08-01T01:11:06;10.90;;;4.53;;
63536;SDS011;49686;51.880;5.632;2023-08-01T01:13:32;11.98;;;6.10;;
63536;SDS011;49686;51.880;5.632;2023-08-01T01:16:00;7.70;;;5.10;;
63536;SDS011;49686;51.880;5.632;2023-08-01T01:18:27;13.18;;;6.95;;
63536;SDS011;49686;51.880;5.632;2023-08-01T01:20:56;9.82;;;5.60;;
63536;SDS011;49686;51.880;5.632;2023-08-01T01:23:22;12.50;;;6.65;;
63536;SDS011;49686;51.880;5.632;2023-08-01T01:30:47;9.25;;;4.97;;
63536;SDS011;49686;51.880;5.632;2023-08-01T01:33:15;10.82;;;5.82;;
63536;SDS011;49686;51.880;5.632;2023-08-01T01:35:42;11.55;;;4.97;;
63536;SDS011;49686;51.880;5.632;2023-08-01T01:38:10;8.95;;;5.03;;
63536;SDS011;49686;51.880;5.632;2023-08-01T01:40:37;11.10;;;5.82;;
63536;SDS011;49686;51.880;5.632;2023-08-01T01:43:04;15.90;;;7.05;;
63536;SDS011;49686;51.880;5.632;2023-08-01T01:45:30;10.40;;;6.72;;
63536;SDS011;49686;51.880;5.632;2023-08-01T01:47:57;13.77;;;7.55;;
63536;SDS011;49686;51.880;5.632;2023-08-01T01:50:24;11.85;;;6.55;;
63536;SDS011;49686;51.880;5.632;2023-08-01T01:52:51;9.43;;;5.60;;
63536;SDS011;49686;51.880;5.632;2023-08-01T01:55:19;10.73;;;6.32;;
63536;SDS011;49686;51.880;5.632;2023-08-01T01:57:46;9.70;;;5.90;;
63536;SDS011;49686;51.880;5.632;2023-08-01T02:00:13;13.20;;;6.25;;
63536;SDS011;49686;51.880;5.632;2023-08-01T02:02:40;14.05;;;6.63;;
63536;SDS011;49686;51.880;5.632;2023-08-01T02:05:07;11.13;;;6.68;;
63536;SDS011;49686;51.880;5.632;2023-08-01T02:07:34;14.02;;;7.63;;
63536;SDS011;49686;51.880;5.632;2023-08-01T02:10:01;12.70;;;7.03;;
63536;SDS011;49686;51.880;5.632;2023-08-01T02:12:29;14.00;;;6.95;;
63536;SDS011;49686;51.880;5.632;2023-08-01T02:14:56;9.40;;;5.53;;
63536;SDS011;49686;51.880;5.632;2023-08-01T02:17:22;12.63;;;6.28;;
63536;SDS011;49686;51.880;5.632;2023-08-01T02:19:49;13.48;;;6.53;;
63536;SDS011;49686;51.880;5.632;2023-08-01T02:22:16;10.50;;;6.25;;
63536;SDS011;49686;51.880;5.632;2023-08-01T02:24:43;13.60;;;6.10;;
63536;SDS011;49686;51.880;5.632;2023-08-01T02:27:10;9.30;;;5.00;;
63536;SDS011;49686;51.880;5.632;2023-08-01T02:29:38;13.48;;;5.97;;
63536;SDS011;49686;51.880;5.632;2023-08-01T02:32:05;12.55;;;5.35;;
63536;SDS011;49686;51.880;5.632;2023-08-01T02:34:33;15.52;;;5.90;;
63536;SDS011;49686;51.880;5.632;2023-08-01T02:36:59;15.95;;;5.13;;
63536;SDS011;49686;51.880;5.632;2023-08-01T02:39:26;12.68;;;5.68;;
63536;SDS011;49686;51.880;5.632;2023-08-01T02:41:53;10.88;;;5.07;;
63536;SDS011;49686;51.880;5.632;2023-08-01T02:44:20;17.92;;;5.30;;
63536;SDS011;49686;51.880;5.632;2023-08-01T02:46:50;8.23;;;4.70;;
63536;SDS011;49686;51.880;5.632;2023-08-01T02:49:17;11.82;;;5.35;;
63536;SDS011;49686;51.880;5.632;2023-08-01T02:51:44;18.35;;;6.57;;
63536;SDS011;49686;51.880;5.632;2023-08-01T02:54:10;11.57;;;5.60;;
63536;SDS011;49686;51.880;5.632;2023-08-01T02:56:37;12.63;;;5.70;;
63536;SDS011;49686;51.880;5.632;2023-08-01T02:59:04;10.93;;;4.90;;
63536;SDS011;49686;51.880;5.632;2023-08-01T03:01:32;15.10;;;5.93;;
63536;SDS011;49686;51.880;5.632;2023-08-01T03:04:01;13.20;;;4.40;;
63536;SDS011;49686;51.880;5.632;2023-08-01T03:06:28;13.18;;;5.25;;
63536;SDS011;49686;51.880;5.632;2023-08-01T03:08:55;14.70;;;4.55;;
63536;SDS011;49686;51.880;5.632;2023-08-01T03:11:21;15.63;;;4.95;;
63536;SDS011;49686;51.880;5.632;2023-08-01T03:13:48;13.32;;;4.78;;
63536;SDS011;49686;51.880;5.632;2023-08-01T03:16:15;17.25;;;5.00;;
63536;SDS011;49686;51.880;5.632;2023-08-01T03:18:42;13.43;;;4.57;;
63536;SDS011;49686;51.880;5.632;2023-08-01T03:21:10;14.57;;;5.00;;
63536;SDS011;49686;51.880;5.632;2023-08-01T03:23:37;16.67;;;6.25;;
63536;SDS011;49686;51.880;5.632;2023-08-01T03:26:04;14.13;;;5.10;;
63536;SDS011;49686;51.880;5.632;2023-08-01T03:28:33;16.48;;;5.35;;
63536;SDS011;49686;51.880;5.632;2023-08-01T03:31:00;11.77;;;5.05;;
63536;SDS011;49686;51.880;5.632;2023-08-01T03:33:26;13.13;;;5.40;;
63536;SDS011;49686;51.880;5.632;2023-08-01T03:35:53;13.80;;;5.72;;
63536;SDS011;49686;51.880;5.632;2023-08-01T03:38:21;13.00;;;5.70;;
63536;SDS011;49686;51.880;5.632;2023-08-01T03:40:48;14.15;;;5.50;;
63536;SDS011;49686;51.880;5.632;2023-08-01T03:43:15;12.82;;;5.18;;
63536;SDS011;49686;51.880;5.632;2023-08-01T03:45:42;12.20;;;4.95;;
63536;SDS011;49686;51.880;5.632;2023-08-01T03:48:09;15.20;;;5.50;;
63536;SDS011;49686;51.880;5.632;2023-08-01T03:50:36;10.48;;;4.57;;
63536;SDS011;49686;51.880;5.632;2023-08-01T03:53:02;13.95;;;5.82;;
63536;SDS011;49686;51.880;5.632;2023-08-01T03:55:31;13.10;;;5.68;;
63536;SDS011;49686;51.880;5.632;2023-08-01T03:57:57;13.05;;;5.50;;
63536;SDS011;49686;51.880;5.632;2023-08-01T04:00:24;16.92;;;5.63;;
63536;SDS011;49686;51.880;5.632;2023-08-01T04:02:51;17.10;;;5.57;;
63536;SDS011;49686;51.880;5.632;2023-08-01T04:05:18;11.75;;;5.18;;
63536;SDS011;49686;51.880;5.632;2023-08-01T04:07:45;19.27;;;5.47;;
63536;SDS011;49686;51.880;5.632;2023-08-01T04:10:12;11.95;;;5.20;;
63536;SDS011;49686;51.880;5.632;2023-08-01T04:12:40;13.40;;;5.70;;
63536;SDS011;49686;51.880;5.632;2023-08-01T04:15:07;12.32;;;5.85;;
63536;SDS011;49686;51.880;5.632;2023-08-01T04:17:34;12.98;;;4.30;;
63536;SDS011;49686;51.880;5.632;2023-08-01T04:20:01;12.98;;;4.88;;
63536;SDS011;49686;51.880;5.632;2023-08-01T04:22:28;13.40;;;5.35;;
63536;SDS011;49686;51.880;5.632;2023-08-01T04:24:55;14.27;;;6.70;;
63536;SDS011;49686;51.880;5.632;2023-08-01T04:27:22;10.40;;;4.95;;
63536;SDS011;49686;51.880;5.632;2023-08-01T04:29:51;14.35;;;5.05;;
63536;SDS011;49686;51.880;5.632;2023-08-01T04:32:18;14.05;;;5.38;;
63536;SDS011;49686;51.880;5.632;2023-08-01T04:34:45;12.80;;;4.78;;
63536;SDS011;49686;51.880;5.632;2023-08-01T04:37:12;11.38;;;5.80;;
63536;SDS011;49686;51.880;5.632;2023-08-01T04:39:38;11.55;;;4.38;;
63536;SDS011;49686;51.880;5.632;2023-08-01T04:42:05;10.02;;;4.35;;
63536;SDS011;49686;51.880;5.632;2023-08-01T04:44:32;11.50;;;4.93;;
63536;SDS011;49686;51.880;5.632;2023-08-01T04:47:00;12.68;;;5.80;;
63536;SDS011;49686;51.880;5.632;2023-08-01T04:49:27;13.82;;;5.60;;
63536;SDS011;49686;51.880;5.632;2023-08-01T04:51:55;13.30;;;5.40;;
63536;SDS011;49686;51.880;5.632;2023-08-01T04:54:22;12.95;;;5.25;;
63536;SDS011;49686;51.880;5.632;2023-08-01T04:56:48;16.00;;;5.72;;
63536;SDS011;49686;51.880;5.632;2023-08-01T04:59:15;12.27;;;4.90;;
63536;SDS011;49686;51.880;5.632;2023-08-01T05:01:42;8.50;;;4.50;;
63536;SDS011;49686;51.880;5.632;2023-08-01T05:04:10;11.43;;;4.82;;
63536;SDS011;49686;51.880;5.632;2023-08-01T05:06:37;11.05;;;4.93;;
63536;SDS011;49686;51.880;5.632;2023-08-01T05:09:04;13.60;;;5.47;;
63536;SDS011;49686;51.880;5.632;2023-08-01T05:11:31;12.77;;;5.50;;
63536;SDS011;49686;51.880;5.632;2023-08-01T05:13:58;12.02;;;6.15;;
63536;SDS011;49686;51.880;5.632;2023-08-01T05:16:25;14.93;;;5.25;;
63536;SDS011;49686;51.880;5.632;2023-08-01T05:18:52;11.13;;;6.32;;
63536;SDS011;49686;51.880;5.632;2023-08-01T05:21:20;13.68;;;6.10;;
63536;SDS011;49686;51.880;5.632;2023-08-01T05:23:47;10.88;;;5.05;;
63536;SDS011;49686;51.880;5.632;2023-08-01T05:26:14;17.23;;;6.57;;
63536;SDS011;49686;51.880;5.632;2023-08-01T05:28:41;17.33;;;6.97;;
63536;SDS011;49686;51.880;5.632;2023-08-01T05:31:07;14.60;;;6.32;;
63536;SDS011;49686;51.880;5.632;2023-08-01T05:33:34;15.02;;;6.40;;
63536;SDS011;49686;51.880;5.632;2023-08-01T05:36:01;13.35;;;6.45;;
63536;SDS011;49686;51.880;5.632;2023-08-01T05:38:29;10.85;;;6.00;;
63536;SDS011;49686;51.880;5.632;2023-08-01T05:40:56;13.68;;;6.53;;
63536;SDS011;49686;51.880;5.632;2023-08-01T05:43:23;15.88;;;6.95;;
63536;SDS011;49686;51.880;5.632;2023-08-01T05:45:50;13.27;;;6.13;;
63536;SDS011;49686;51.880;5.632;2023-08-01T05:48:19;12.20;;;5.22;;
63536;SDS011;49686;51.880;5.632;2023-08-01T05:50:46;11.30;;;4.72;;
63536;SDS011;49686;51.880;5.632;2023-08-01T05:53:14;9.40;;;5.00;;
63536;SDS011;49686;51.880;5.632;2023-08-01T05:55:42;10.80;;;4.68;;
63536;SDS011;49686;51.880;5.632;2023-08-01T05:58:09;14.25;;;4.72;;
63536;SDS011;49686;51.880;5.632;2023-08-01T06:00:36;10.02;;;5.20;;
63536;SDS011;49686;51.880;5.632;2023-08-01T06:03:03;12.93;;;5.38;;
63536;SDS011;49686;51.880;5.632;2023-08-01T06:05:29;15.32;;;5.78;;
63536;SDS011;49686;51.880;5.632;2023-08-01T06:07:56;14.98;;;4.93;;
63536;SDS011;49686;51.880;5.632;2023-08-01T06:10:23;10.30;;;4.50;;
63536;SDS011;49686;51.880;5.632;2023-08-01T06:12:52;11.18;;;4.13;;
63536;SDS011;49686;51.880;5.632;2023-08-01T06:15:18;11.70;;;5.35;;
63536;SDS011;49686;51.880;5.632;2023-08-01T06:17:46;14.18;;;4.40;;
63536;SDS011;49686;51.880;5.632;2023-08-01T06:20:12;14.75;;;5.10;;
63536;SDS011;49686;51.880;5.632;2023-08-01T06:22:39;11.05;;;4.18;;
63536;SDS011;49686;51.880;5.632;2023-08-01T06:25:07;14.05;;;4.50;;
63536;SDS011;49686;51.880;5.632;2023-08-01T06:27:34;15.35;;;4.88;;
63536;SDS011;49686;51.880;5.632;2023-08-01T06:30:03;14.77;;;5.00;;
63536;SDS011;49686;51.880;5.632;2023-08-01T06:32:32;12.10;;;4.32;;
63536;SDS011;49686;51.880;5.632;2023-08-01T06:34:59;12.05;;;4.18;;
63536;SDS011;49686;51.880;5.632;2023-08-01T06:37:26;8.65;;;3.92;;
63536;SDS011;49686;51.880;5.632;2023-08-01T06:39:53;9.73;;;4.13;;
63536;SDS011;49686;51.880;5.632;2023-08-01T06:42:20;9.35;;;3.67;;
63536;SDS011;49686;51.880;5.632;2023-08-01T06:44:47;10.07;;;4.13;;
63536;SDS011;49686;51.880;5.632;2023-08-01T06:47:15;8.63;;;3.63;;
63536;SDS011;49686;51.880;5.632;2023-08-01T06:49:43;12.70;;;3.65;;
63536;SDS011;49686;51.880;5.632;2023-08-01T06:52:10;11.75;;;3.67;;
63536;SDS011;49686;51.880;5.632;2023-08-01T06:54:37;13.18;;;3.97;;
63536;SDS011;49686;51.880;5.632;2023-08-01T06:57:05;8.90;;;3.80;;
63536;SDS011;49686;51.880;5.632;2023-08-01T06:59:32;8.85;;;3.30;;
63536;SDS011;49686;51.880;5.632;2023-08-01T07:01:59;6.38;;;3.05;;
63536;SDS011;49686;51.880;5.632;2023-08-01T07:04:30;8.90;;;3.10;;
63536;SDS011;49686;51.880;5.632;2023-08-01T07:06:57;10.18;;;3.25;;
63536;SDS011;49686;51.880;5.632;2023-08-01T07:09:24;11.35;;;3.42;;
63536;SDS011;49686;51.880;5.632;2023-08-01T07:11:50;7.88;;;3.40;;
63536;SDS011;49686;51.880;5.632;2023-08-01T07:14:17;8.77;;;3.30;;
63536;SDS011;49686;51.880;5.632;2023-08-01T07:16:44;8.77;;;3.00;;
63536;SDS011;49686;51.880;5.632;2023-08-01T07:19:11;11.18;;;3.15;;
63536;SDS011;49686;51.880;5.632;2023-08-01T07:21:39;9.63;;;3.20;;
63536;SDS011;49686;51.880;5.632;2023-08-01T07:24:06;8.85;;;3.08;;
63536;SDS011;49686;51.880;5.632;2023-08-01T07:26:33;8.02;;;2.83;;
63536;SDS011;49686;51.880;5.632;2023-08-01T07:28:59;7.75;;;3.03;;
63536;SDS011;49686;51.880;5.632;2023-08-01T07:31:26;6.47;;;2.38;;
63536;SDS011;49686;51.880;5.632;2023-08-01T07:33:53;8.40;;;2.58;;
63536;SDS011;49686;51.880;5.632;2023-08-01T07:36:20;6.25;;;2.42;;
63536;SDS011;49686;51.880;5.632;2023-08-01T07:38:48;7.80;;;2.80;;
63536;SDS011;49686;51.880;5.632;2023-08-01T07:41:15;7.85;;;2.60;;
63536;SDS011;49686;51.880;5.632;2023-08-01T07:43:42;6.78;;;2.42;;
63536;SDS011;49686;51.880;5.632;2023-08-01T07:46:09;8.05;;;2.70;;
63536;SDS011;49686;51.880;5.632;2023-08-01T07:48:36;11.10;;;3.03;;
63536;SDS011;49686;51.880;5.632;2023-08-01T07:51:02;7.80;;;2.35;;
63536;SDS011;49686;51.880;5.632;2023-08-01T07:53:29;7.45;;;2.63;;
63536;SDS011;49686;51.880;5.632;2023-08-01T07:55:57;8.93;;;2.47;;
63536;SDS011;49686;51.880;5.632;2023-08-01T07:58:24;7.97;;;2.40;;
63536;SDS011;49686;51.880;5.632;2023-08-01T08:00:51;6.25;;;2.28;;
63536;SDS011;49686;51.880;5.632;2023-08-01T08:03:18;6.18;;;2.00;;
63536;SDS011;49686;51.880;5.632;2023-08-01T08:05:44;8.80;;;2.17;;
63536;SDS011;49686;51.880;5.632;2023-08-01T08:08:11;8.18;;;2.20;;
63536;SDS011;49686;51.880;5.632;2023-08-01T08:10:38;8.05;;;2.30;;
63536;SDS011;49686;51.880;5.632;2023-08-01T08:13:10;9.30;;;2.28;;
63536;SDS011;49686;51.880;5.632;2023-08-01T08:15:37;6.80;;;2.22;;
63536;SDS011;49686;51.880;5.632;2023-08-01T08:18:04;3.00;;;1.60;;
63536;SDS011;49686;51.880;5.632;2023-08-01T08:20:34;4.63;;;1.75;;
63536;SDS011;49686;51.880;5.632;2023-08-01T08:23:07;5.30;;;1.75;;
63536;SDS011;49686;51.880;5.632;2023-08-01T08:25:34;4.15;;;1.50;;
63536;SDS011;49686;51.880;5.632;2023-08-01T08:28:01;4.88;;;1.80;;
63536;SDS011;49686;51.880;5.632;2023-08-01T08:30:29;10.35;;;2.67;;
63536;SDS011;49686;51.880;5.632;2023-08-01T08:32:56;7.88;;;2.00;;
63536;SDS011;49686;51.880;5.632;2023-08-01T08:35:24;7.35;;;2.30;;
63536;SDS011;49686;51.880;5.632;2023-08-01T08:37:51;7.45;;;2.75;;
63536;SDS011;49686;51.880;5.632;2023-08-01T08:40:17;8.38;;;2.13;;
63536;SDS011;49686;51.880;5.632;2023-08-01T08:42:44;9.73;;;2.67;;
63536;SDS011;49686;51.880;5.632;2023-08-01T08:45:12;8.73;;;2.67;;
63536;SDS011;49686;51.880;5.632;2023-08-01T08:47:45;9.80;;;2.42;;
63536;SDS011;49686;51.880;5.632;2023-08-01T08:50:20;5.53;;;2.45;;
63536;SDS011;49686;51.880;5.632;2023-08-01T08:52:47;5.38;;;2.08;;
63536;SDS011;49686;51.880;5.632;2023-08-01T08:55:14;9.98;;;2.50;;
63536;SDS011;49686;51.880;5.632;2023-08-01T08:57:42;7.60;;;2.10;;
63536;SDS011;49686;51.880;5.632;2023-08-01T09:00:09;7.07;;;2.15;;
63536;SDS011;49686;51.880;5.632;2023-08-01T09:02:37;4.40;;;2.15;;
63536;SDS011;49686;51.880;5.632;2023-08-01T09:05:06;3.92;;;1.73;;
63536;SDS011;49686;51.880;5.632;2023-08-01T09:07:33;4.85;;;1.70;;
63536;SDS011;49686;51.880;5.632;2023-08-01T09:10:05;5.88;;;1.98;;
63536;SDS011;49686;51.880;5.632;2023-08-01T09:12:33;5.63;;;2.33;;
63536;SDS011;49686;51.880;5.632;2023-08-01T09:15:01;6.15;;;2.30;;
63536;SDS011;49686;51.880;5.632;2023-08-01T09:17:28;5.38;;;1.80;;
63536;SDS011;49686;51.880;5.632;2023-08-01T09:19:55;7.28;;;2.25;;
63536;SDS011;49686;51.880;5.632;2023-08-01T09:22:23;7.47;;;1.98;;
63536;SDS011;49686;51.880;5.632;2023-08-01T09:24:51;5.05;;;1.83;;
63536;SDS011;49686;51.880;5.632;2023-08-01T09:27:18;5.50;;;1.85;;
63536;SDS011;49686;51.880;5.632;2023-08-01T09:29:47;6.43;;;1.80;;
63536;SDS011;49686;51.880;5.632;2023-08-01T09:32:14;5.95;;;1.90;;
63536;SDS011;49686;51.880;5.632;2023-08-01T09:34:41;6.57;;;2.25;;
63536;SDS011;49686;51.880;5.632;2023-08-01T09:37:08;7.68;;;1.90;;
63536;SDS011;49686;51.880;5.632;2023-08-01T09:39:36;7.05;;;1.90;;
63536;SDS011;49686;51.880;5.632;2023-08-01T09:44:31;4.38;;;1.70;;
63536;SDS011;49686;51.880;5.632;2023-08-01T09:47:01;4.57;;;1.60;;
63536;SDS011;49686;51.880;5.632;2023-08-01T09:49:29;6.63;;;1.90;;
63536;SDS011;49686;51.880;5.632;2023-08-01T09:51:57;8.90;;;2.17;;
63536;SDS011;49686;51.880;5.632;2023-08-01T09:54:24;7.45;;;2.15;;
63536;SDS011;49686;51.880;5.632;2023-08-01T09:56:53;5.20;;;2.10;;
63536;SDS011;49686;51.880;5.632;2023-08-01T09:59:21;10.18;;;2.28;;
63536;SDS011;49686;51.880;5.632;2023-08-01T10:01:50;6.63;;;2.40;;
63536;SDS011;49686;51.880;5.632;2023-08-01T10:06:46;8.05;;;2.30;;
63536;SDS011;49686;51.880;5.632;2023-08-01T10:09:19;6.10;;;1.90;;
63536;SDS011;49686;51.880;5.632;2023-08-01T10:11:48;7.53;;;1.88;;
63536;SDS011;49686;51.880;5.632;2023-08-01T10:14:17;6.82;;;2.08;;
63536;SDS011;49686;51.880;5.632;2023-08-01T10:16:46;7.30;;;2.00;;
63536;SDS011;49686;51.880;5.632;2023-08-01T10:19:13;7.75;;;2.42;;
63536;SDS011;49686;51.880;5.632;2023-08-01T10:21:40;6.22;;;1.65;;
63536;SDS011;49686;51.880;5.632;2023-08-01T10:24:08;5.80;;;2.03;;
63536;SDS011;49686;51.880;5.632;2023-08-01T10:26:35;14.93;;;2.50;;
63536;SDS011;49686;51.880;5.632;2023-08-01T10:29:02;8.65;;;2.35;;
63536;SDS011;49686;51.880;5.632;2023-08-01T10:31:31;6.18;;;2.45;;
63536;SDS011;49686;51.880;5.632;2023-08-01T10:34:04;5.72;;;1.65;;
63536;SDS011;49686;51.880;5.632;2023-08-01T10:36:32;4.07;;;2.00;;
63536;SDS011;49686;51.880;5.632;2023-08-01T10:39:00;5.88;;;1.85;;
63536;SDS011;49686;51.880;5.632;2023-08-01T10:41:28;3.92;;;1.50;;
63536;SDS011;49686;51.880;5.632;2023-08-01T10:44:05;4.35;;;1.80;;
63536;SDS011;49686;51.880;5.632;2023-08-01T10:46:48;7.57;;;2.03;;
63536;SDS011;49686;51.880;5.632;2023-08-01T10:49:16;5.47;;;1.80;;
63536;SDS011;49686;51.880;5.632;2023-08-01T10:51:43;5.68;;;1.65;;
63536;SDS011;49686;51.880;5.632;2023-08-01T10:54:18;8.27;;;1.95;;
63536;SDS011;49686;51.880;5.632;2023-08-01T10:56:45;6.13;;;1.52;;
63536;SDS011;49686;51.880;5.632;2023-08-01T10:59:12;5.32;;;1.60;;
63536;SDS011;49686;51.880;5.632;2023-08-01T11:01:43;5.35;;;1.75;;
63536;SDS011;49686;51.880;5.632;2023-08-01T11:04:15;6.60;;;2.03;;
63536;SDS011;49686;51.880;5.632;2023-08-01T11:06:43;5.55;;;1.73;;
63536;SDS011;49686;51.880;5.632;2023-08-01T11:09:15;5.45;;;1.70;;
63536;SDS011;49686;51.880;5.632;2023-08-01T11:11:42;3.95;;;1.50;;
63536;SDS011;49686;51.880;5.632;2023-08-01T11:14:11;4.43;;;1.77;;
63536;SDS011;49686;51.880;5.632;2023-08-01T11:16:38;6.82;;;1.92;;
63536;SDS011;49686;51.880;5.632;2023-08-01T11:19:06;4.35;;;1.85;;
63536;SDS011;49686;51.880;5.632;2023-08-01T11:21:44;4.75;;;1.77;;
63536;SDS011;49686;51.880;5.632;2023-08-01T11:24:12;3.90;;;1.40;;
63536;SDS011;49686;51.880;5.632;2023-08-01T11:26:40;7.10;;;1.70;;
63536;SDS011;49686;51.880;5.632;2023-08-01T11:29:09;5.85;;;1.60;;
63536;SDS011;49686;51.880;5.632;2023-08-01T11:31:36;4.10;;;1.13;;
63536;SDS011;49686;51.880;5.632;2023-08-01T11:34:04;5.45;;;1.50;;
63536;SDS011;49686;51.880;5.632;2023-08-01T11:36:30;4.65;;;1.77;;
63536;SDS011;49686;51.880;5.632;2023-08-01T11:38:59;4.75;;;1.40;;
63536;SDS011;49686;51.880;5.632;2023-08-01T11:41:27;5.03;;;1.98;;
63536;SDS011;49686;51.880;5.632;2023-08-01T11:43:54;3.88;;;1.30;;
63536;SDS011;49686;51.880;5.632;2023-08-01T11:46:22;5.32;;;1.60;;
63536;SDS011;49686;51.880;5.632;2023-08-01T11:48:56;4.10;;;1.60;;
63536;SDS011;49686;51.880;5.632;2023-08-01T11:51:25;6.22;;;1.80;;
63536;SDS011;49686;51.880;5.632;2023-08-01T11:53:59;3.53;;;1.38;;
63536;SDS011;49686;51.880;5.632;2023-08-01T11:56:27;2.72;;;1.20;;
63536;SDS011;49686;51.880;5.632;2023-08-01T11:58:54;8.18;;;1.50;;
63536;SDS011;49686;51.880;5.632;2023-08-01T12:01:21;6.45;;;1.60;;
63536;SDS011;49686;51.880;5.632;2023-08-01T12:03:49;5.10;;;1.50;;
63536;SDS011;49686;51.880;5.632;2023-08-01T12:06:17;5.93;;;1.85;;
63536;SDS011;49686;51.880;5.632;2023-08-01T12:11:21;5.82;;;1.42;;
63536;SDS011;49686;51.880;5.632;2023-08-01T12:13:59;3.67;;;1.20;;
63536;SDS011;49686;51.880;5.632;2023-08-01T12:16:28;6.45;;;1.52;;
63536;SDS011;49686;51.880;5.632;2023-08-01T12:18:55;3.53;;;1.60;;
63536;SDS011;49686;51.880;5.632;2023-08-01T12:21:26;7.15;;;1.77;;
63536;SDS011;49686;51.880;5.632;2023-08-01T12:23:53;5.97;;;1.60;;
63536;SDS011;49686;51.880;5.632;2023-08-01T12:26:22;5.72;;;1.90;;
63536;SDS011;49686;51.880;5.632;2023-08-01T12:28:49;5.72;;;1.52;;
63536;SDS011;49686;51.880;5.632;2023-08-01T12:31:16;5.50;;;1.45;;
63536;SDS011;49686;51.880;5.632;2023-08-01T12:33:43;6.72;;;1.90;;
63536;SDS011;49686;51.880;5.632;2023-08-01T12:36:10;5.78;;;1.48;;
63536;SDS011;49686;51.880;5.632;2023-08-01T12:38:36;3.55;;;1.40;;
63536;SDS011;49686;51.880;5.632;2023-08-01T12:41:03;4.05;;;1.70;;
63536;SDS011;49686;51.880;5.632;2023-08-01T12:43:32;8.65;;;2.25;;
63536;SDS011;49686;51.880;5.632;2023-08-01T12:45:59;5.90;;;1.60;;
63536;SDS011;49686;51.880;5.632;2023-08-01T12:48:26;6.10;;;1.58;;
63536;SDS011;49686;51.880;5.632;2023-08-01T12:50:54;5.15;;;1.67;;
63536;SDS011;49686;51.880;5.632;2023-08-01T12:53:22;6.93;;;1.67;;
63536;SDS011;49686;51.880;5.632;2023-08-01T12:55:50;6.72;;;1.80;;
63536;SDS011;49686;51.880;5.632;2023-08-01T12:58:17;6.45;;;1.83;;
63536;SDS011;49686;51.880;5.632;2023-08-01T13:00:46;6.07;;;1.80;;
63536;SDS011;49686;51.880;5.632;2023-08-01T13:03:13;4.70;;;1.75;;
63536;SDS011;49686;51.880;5.632;2023-08-01T13:05:40;4.85;;;1.80;;
63536;SDS011;49686;51.880;5.632;2023-08-01T13:08:08;3.95;;;1.52;;
63536;SDS011;49686;51.880;5.632;2023-08-01T13:10:36;7.05;;;1.83;;
63536;SDS011;49686;51.880;5.632;2023-08-01T13:13:03;7.83;;;1.87;;
63536;SDS011;49686;51.880;5.632;2023-08-01T13:15:30;8.52;;;1.98;;
63536;SDS011;49686;51.880;5.632;2023-08-01T13:17:58;6.18;;;1.80;;
63536;SDS011;49686;51.880;5.632;2023-08-01T13:20:25;6.45;;;1.70;;
63536;SDS011;49686;51.880;5.632;2023-08-01T13:22:55;7.10;;;1.88;;
63536;SDS011;49686;51.880;5.632;2023-08-01T13:25:22;5.50;;;1.52;;
63536;SDS011;49686;51.880;5.632;2023-08-01T13:27:49;3.72;;;1.70;;
63536;SDS011;49686;51.880;5.632;2023-08-01T13:30:16;3.63;;;1.42;;
63536;SDS011;49686;51.880;5.632;2023-08-01T13:32:43;5.13;;;1.50;;
63536;SDS011;49686;51.880;5.632;2023-08-01T13:35:11;5.72;;;1.60;;
63536;SDS011;49686;51.880;5.632;2023-08-01T13:37:38;4.40;;;1.50;;
63536;SDS011;49686;51.880;5.632;2023-08-01T13:40:06;4.30;;;1.42;;
63536;SDS011;49686;51.880;5.632;2023-08-01T13:42:33;4.85;;;1.27;;
63536;SDS011;49686;51.880;5.632;2023-08-01T13:45:00;4.07;;;1.50;;
63536;SDS011;49686;51.880;5.632;2023-08-01T13:47:27;7.35;;;1.50;;
63536;SDS011;49686;51.880;5.632;2023-08-01T13:49:55;5.07;;;1.70;;
63536;SDS011;49686;51.880;5.632;2023-08-01T13:52:23;9.50;;;1.60;;
63536;SDS011;49686;51.880;5.632;2023-08-01T13:54:50;5.55;;;1.40;;
63536;SDS011;49686;51.880;5.632;2023-08-01T13:57:17;4.10;;;1.17;;
63536;SDS011;49686;51.880;5.632;2023-08-01T13:59:46;5.13;;;1.80;;
63536;SDS011;49686;51.880;5.632;2023-08-01T14:02:27;6.63;;;1.70;;
63536;SDS011;49686;51.880;5.632;2023-08-01T14:04:54;4.53;;;1.50;;
63536;SDS011;49686;51.880;5.632;2023-08-01T14:07:21;6.80;;;1.98;;
63536;SDS011;49686;51.880;5.632;2023-08-01T14:09:49;3.78;;;1.55;;
63536;SDS011;49686;51.880;5.632;2023-08-01T14:12:16;5.15;;;1.55;;
63536;SDS011;49686;51.880;5.632;2023-08-01T14:14:43;3.85;;;1.70;;
63536;SDS011;49686;51.880;5.632;2023-08-01T14:17:09;3.97;;;1.23;;
63536;SDS011;49686;51.880;5.632;2023-08-01T14:19:36;6.40;;;1.70;;
63536;SDS011;49686;51.880;5.632;2023-08-01T14:22:03;6.07;;;1.40;;
63536;SDS011;49686;51.880;5.632;2023-08-01T14:24:30;5.05;;;1.30;;
63536;SDS011;49686;51.880;5.632;2023-08-01T14:26:58;3.78;;;1.30;;
63536;SDS011;49686;51.880;5.632;2023-08-01T14:29:25;5.15;;;1.30;;
63536;SDS011;49686;51.880;5.632;2023-08-01T14:31:52;7.57;;;2.15;;
63536;SDS011;49686;51.880;5.632;2023-08-01T14:34:19;7.05;;;1.80;;
63536;SDS011;49686;51.880;5.632;2023-08-01T14:36:46;3.00;;;1.30;;
63536;SDS011;49686;51.880;5.632;2023-08-01T14:39:13;5.00;;;1.33;;
63536;SDS011;49686;51.880;5.632;2023-08-01T14:41:48;5.07;;;1.40;;
63536;SDS011;49686;51.880;5.632;2023-08-01T14:44:19;5.38;;;1.30;;
63536;SDS011;49686;51.880;5.632;2023-08-01T14:46:46;6.25;;;1.38;;
63536;SDS011;49686;51.880;5.632;2023-08-01T14:49:15;3.03;;;1.30;;
63536;SDS011;49686;51.880;5.632;2023-08-01T14:51:41;3.42;;;1.35;;
63536;SDS011;49686;51.880;5.632;2023-08-01T14:54:08;3.08;;;1.10;;
63536;SDS011;49686;51.880;5.632;2023-08-01T14:56:35;5.78;;;1.50;;
63536;SDS011;49686;51.880;5.632;2023-08-01T15:00:10;3.42;;;1.10;;